Terminal Aerodrome Forecast
Issued by NWS Columbia, SC

Home | Current Version | Previous Version | Text Only | Print | Product List | Glossary On
Versions: 1 2 3 4 5 6 7 8 9 10 11 12 13 14 15 16 17 18 19 20 21 22 23 24 25 26 27 28 29
801
FTUS42 KCAE 181732
TAFCAE
TAF
KCAE 181732Z 1818/1918 23008G17KT P6SM SCT050
     FM190000 23004KT P6SM FEW100
     FM191500 27004KT P6SM FEW050=

USA.gov is the U.S. government's official web portal to all federal, state and local government web resources and services.